Scroll for more >

River gauges, storages, and weirs in the Murray–Darling Basin

Type Locationsort descending River Water level Flow Volume Release Water temp Salinity Rainfall
River Gauge Albury (Union Bridge) Murray 1.12 m 24/08/2017 6:15 Not measured Not measured Not measured 8.5°C 24/08/2017 6:15 55.2 μS/cm 24/08/2017 6:15 Not measured Full data
River Gauge Balranald Murrumbidgee 5.13 m 24/08/2017 5:45 7076 ML/Day 24/08/2017 5:45 Not measured Not measured 10.9°C 24/08/2017 5:45 170.6 μS/cm 24/08/2017 5:45 Not measured Full data
River Gauge Bandiana Kiewa 2.86 m 24/08/2017 5:45 4709 ML/Day 24/08/2017 5:45 Not measured Not measured 8.0°C 24/08/2017 5:45 51.1 μS/cm 24/08/2017 5:45 Not measured Full data
River Gauge Biggara Murray 0.88 m 24/08/2017 6:15 1797 ML/Day 24/08/2017 6:15 Not measured Not measured 6.8°C 24/08/2017 6:15 39.5 μS/cm 24/08/2017 6:15 0.2 mm 23/08/2017 9:00 Full data
River Gauge Bringenbrong Bridge Murray 1.7 m 24/08/2017 6:15 4995 ML/Day 24/08/2017 6:15 Not measured Not measured Not measured Not measured Not measured Full data
River Gauge Burtundy Darling 0.78 m 24/08/2017 6:15 279 ML/Day 24/08/2017 6:15 Not measured Not measured 12.2°C 24/08/2017 6:15 691.3 μS/cm 24/08/2017 6:15 Not measured Full data
River Gauge Colemans Mitta 1.23 m 24/08/2017 6:15 614 ML/Day 24/08/2017 6:15 Not measured Not measured 9.4°C 24/08/2017 5:45 57.6 μS/cm 24/08/2017 5:45 Not measured Full data
River Gauge Colignan Murray 3 m 24/08/2017 5:30 14279 ML/Day 24/08/2017 5:30 Not measured Not measured 12.5°C 24/08/2017 5:30 175.4 μS/cm 24/08/2017 5:30 Not measured Full data
River Gauge Corowa Murray 1.72 m 24/08/2017 6:15 6422 ML/Day 24/08/2017 6:15 Not measured Not measured 9.6°C 24/08/2017 6:15 48.3 μS/cm 24/08/2017 6:15 Not measured Full data
Storage Dartmouth Dam Mitta 474.46 m 24/08/2017 6:15 Not measured 3144 GL 24/08/2017 6:15 Not measured Not measured Not measured Not measured Full data
River Gauge Doctors Point Murray 2.09 m 24/08/2017 6:15 4900 ML/Day 24/08/2017 6:15 Not measured Not measured 8.6°C 24/08/2017 6:15 51.8 μS/cm 24/08/2017 6:15 Not measured Full data
River Gauge Echuca Wharf Murray 87.62 m 24/08/2017 4:45 Not measured Not measured Not measured Not measured Not measured Not measured Full data
River Gauge Edward Escape Wakool 0.06 m 24/08/2017 5:45 10 ML/Day 24/08/2017 5:45 Not measured Not measured 10.9°C 24/08/2017 5:45 40.4 μS/cm 24/08/2017 5:45 Not measured Full data
River Gauge Edward River Offtake Murray 2.74 m 24/08/2017 7:00 2110 ML/Day 24/08/2017 7:00 Not measured Not measured 10.7°C 24/08/2017 5:45 42.0 μS/cm 24/08/2017 5:45 Not measured Full data
Weirs Euston Weir Downstream Murray 44.55 m 24/08/2017 5:45 14899 ML/Day 24/08/2017 5:45 Not measured Not measured 11.3°C 24/08/2017 5:45 146.6 μS/cm 24/08/2017 5:45 Not measured Full data
Weirs Euston Weir Upstream Murray 47.55 m 23/08/2017 7:45 Not measured 36 GL 23/08/2017 7:45 Not measured Not measured Not measured 0.0 mm 22/08/2017 9:00 Full data
River Gauge Flow to South Australia Murray Not measured Not measured Not measured 6584.4 ML/d23/08/2017 7:45 Not measured Not measured Not measured Full data
River Gauge Frenchman Creek Murray 27.04 m 23/08/2017 7:45 Not measured Not measured 7516.1 ML/d23/08/2017 7:45 Not measured Not measured Not measured Full data
River Gauge Gulpa Creek Offtake Murray 3.13 m 24/08/2017 5:45 815 ML/Day 24/08/2017 5:45 Not measured Not measured Not measured Not measured Not measured Full data
River Gauge Hinnomunjie Mitta 1.09 m 24/08/2017 5:45 1614 ML/Day 24/08/2017 5:45 Not measured Not measured 6.2°C 24/08/2017 5:45 27.3 μS/cm 24/08/2017 5:45 0.0 mm 23/08/2017 9:00 Full data
Storage Hume Dam Murray 189.95 m 24/08/2017 6:15 Not measured 2610 GL 24/08/2017 6:15 600.0 ML/d23/08/2017 8:00 Not measured Not measured 0.0 mm 23/08/2017 9:00 Full data
River Gauge Jingellic Murray 2.2 m 24/08/2017 5:45 8825 ML/Day 24/08/2017 5:45 Not measured Not measured 7.9°C 24/08/2017 5:45 43.6 μS/cm 24/08/2017 5:45 0.0 mm 23/08/2017 9:00 Full data
River Gauge Kerang Loddon 0.35 m 24/08/2017 5:45 168 ML/Day 24/08/2017 5:45 Not measured Not measured 10.7°C 24/08/2017 5:45 358.9 μS/cm 24/08/2017 5:45 Not measured Full data
River Gauge Lake Albert Murray 0.84 m 24/08/2017 5:45 Not measured 286 GL 24/08/2017 5:45 Not measured Not measured Not measured Not measured Full data
River Gauge Lake Alexandrina Murray 0.79 m 24/08/2017 5:45 Not measured 1640 GL 24/08/2017 5:45 Not measured Not measured 566.2 μS/cm 24/08/2017 5:45 Not measured Full data
Storage Lake Victoria Murray 25.36 m 24/08/2017 5:45 Not measured 487 GL 24/08/2017 5:45 Not measured 11.8°C 24/08/2017 5:45 218.1 μS/cm 24/08/2017 5:45 Not measured Full data
Weirs Lock 1 Downstream Murray 0.77 m 23/08/2017 15:30 Not measured Not measured 4196.7 ML/d23/08/2017 7:45 Not measured Not measured Not measured Full data
Weirs Lock 1 Upstream Murray 3.13 m 23/08/2017 15:30 Not measured Not measured Not measured 13.1°C 23/08/2017 15:30 374.8 μS/cm 23/08/2017 15:30 Not measured Full data
Weirs Lock 2 Downstream Murray 3.3 m 23/08/2017 15:30 Not measured Not measured Not measured Not measured Not measured Not measured Full data
Weirs Lock 2 Upstream Murray 6.43 m 23/08/2017 15:30 Not measured Not measured Not measured 12.8°C 23/08/2017 15:30 347.9 μS/cm 23/08/2017 15:30 Not measured Full data
Weirs Lock 3 Downstream Murray 6.64 m 23/08/2017 15:30 Not measured Not measured Not measured Not measured Not measured Not measured Full data
Weirs Lock 3 Upstream Murray 9.84 m 23/08/2017 15:30 Not measured Not measured Not measured Not measured Not measured Not measured Full data
Weirs Lock 4 Downstream Murray 10.41 m 23/08/2017 15:30 Not measured Not measured Not measured Not measured Not measured Not measured Full data
Weirs Lock 4 Upstream Murray 13.21 m 23/08/2017 15:30 Not measured Not measured Not measured Not measured Not measured Not measured Full data
Weirs Lock 5 Downstream Murray 13.36 m 23/08/2017 15:30 Not measured Not measured Not measured Not measured Not measured Not measured Full data
Weirs Lock 5 Upstream Murray 16.6 m 23/08/2017 15:30 Not measured Not measured Not measured 12.7°C 23/08/2017 15:30 290.9 μS/cm 23/08/2017 15:30 Not measured Full data
Weirs Lock 6 Downstream Murray 16.65 m 23/08/2017 15:15 Not measured Not measured Not measured Not measured Not measured Not measured Full data
Weirs Lock 6 Upstream Murray 19.25 m 23/08/2017 15:15 Not measured Not measured Not measured 13.3°C 23/08/2017 15:15 237.5 μS/cm 23/08/2017 15:15 Not measured Full data
Weirs Lock 7 Downstream Murray 20.4 m 23/08/2017 15:30 Not measured Not measured Not measured Not measured Not measured Not measured Full data
Weirs Lock 7 Upstream Murray 21.9 m 23/08/2017 15:30 Not measured Not measured Not measured 13.2°C 23/08/2017 15:30 195.3 μS/cm 23/08/2017 15:30 Not measured Full data
Weirs Lock 8 Upstream Murray 23.66 m 23/08/2017 7:45 Not measured Not measured Not measured 13.1°C 23/08/2017 15:30 193.2 μS/cm 23/08/2017 15:30 Not measured Full data
Weirs Lock 9 Downstream Murray 23.86 m 23/08/2017 15:30 Not measured Not measured Not measured Not measured Not measured Not measured Full data
Weirs Lock 9 Upstream Murray 27.45 m 23/08/2017 15:30 Not measured Not measured Not measured 12.8°C 23/08/2017 15:30 211.3 μS/cm 23/08/2017 15:30 Not measured Full data
River Gauge McCoy Bridge Goulburn 3.15 m 24/08/2017 5:45 4149 ML/Day 24/08/2017 5:45 Not measured Not measured 10.1°C 24/08/2017 5:45 145.9 μS/cm 24/08/2017 5:45 Not measured Full data
Storage Menindee Lakes Darling Not measured Not measured 738 GL 23/08/2017 7:45 Not measured Not measured Not measured Not measured Full data
Weirs Mildura Weir downstream Murray 31.28 m 24/08/2017 5:30 Not measured Not measured Not measured 12.3°C 24/08/2017 5:30 218.0 μS/cm 24/08/2017 5:30 Not measured Full data
River Gauge Morgan Downstream Murray Not measured Not measured Not measured 3562.2 ML/d23/08/2017 16:15 Not measured 367.6 μS/cm 24/08/2017 5:45 Not measured Full data
River Gauge Mulwala Canal Murray Not measured Not measured Not measured 368.0 ML/d23/08/2017 7:45 Not measured Not measured Not measured Full data
River Gauge Mundoo Barrage Murray 0.74 m 23/08/2017 7:45 Not measured Not measured Not measured Not measured Not measured Not measured Full data
River Gauge Murray Bridge Murray 0.83 m 23/08/2017 16:00 Not measured Not measured Not measured 12.2°C 23/08/2017 16:00 504.2 μS/cm 23/08/2017 16:00 Not measured Full data
River Gauge Peechelba Ovens 130.24 m 24/08/2017 5:45 17160 ML/Day 24/08/2017 5:45 Not measured Not measured 9.3°C 24/08/2017 5:45 78.0 μS/cm 24/08/2017 5:45 Not measured Full data
River Gauge Pinegrove Murray 1.62 m 24/08/2017 6:15 803 ML/Day 24/08/2017 6:15 Not measured Not measured 7.5°C 24/08/2017 6:15 73.1 μS/cm 24/08/2017 6:15 0.0 mm 23/08/2017 9:00 Full data
River Gauge Rochester Campaspe 1.98 m 24/08/2017 5:45 273 ML/Day 24/08/2017 5:45 Not measured Not measured 9.5°C 24/08/2017 5:45 598.1 μS/cm 24/08/2017 5:45 0.2 mm 23/08/2017 9:00 Full data
River Gauge Rufus River Murray 20.43 m 23/08/2017 7:45 Not measured Not measured 916.8 ML/d23/08/2017 7:45 Not measured 251.8 μS/cm 24/08/2017 5:45 Not measured Full data
Weirs Steven's Weir Downstream Wakool 2.09 m 24/08/2017 5:45 2124 ML/Day 24/08/2017 5:45 Not measured Not measured 11.0°C 24/08/2017 5:45 50.0 μS/cm 24/08/2017 5:45 0.0 mm 22/08/2017 9:00 Full data
Weirs Steven's Weir Upstream Wakool 4.39 m 24/08/2017 7:00 Not measured Not measured Not measured Not measured Not measured Not measured Full data
River Gauge Stoney Crossing Murray 1.52 m 24/08/2017 5:45 646 ML/Day 24/08/2017 5:45 Not measured 642.6 ML/d23/08/2017 7:45 11.9°C 24/08/2017 5:45 304.9 μS/cm 24/08/2017 5:45 Not measured Full data
River Gauge Swan Hill Murray 1.59 m 24/08/2017 5:15 8193 ML/Day 24/08/2017 5:15 Not measured Not measured 11.3°C 24/08/2017 5:15 123.4 μS/cm 24/08/2017 5:15 Not measured Full data
River Gauge Tallandoon Mitta 1.88 m 24/08/2017 5:45 1930 ML/Day 24/08/2017 5:45 Not measured Not measured 9.0°C 24/08/2017 5:45 33.1 μS/cm 24/08/2017 5:45 Not measured Full data
River Gauge Tauwitchere Barrage Murray 0.75 m 24/08/2017 5:45 Not measured Not measured Not measured Not measured Not measured Not measured Full data
River Gauge Tocumwal Murray 4.4 m 24/08/2017 5:45 26990 ML/Day 24/08/2017 5:45 Not measured Not measured 10.0°C 24/08/2017 5:45 56.2 μS/cm 24/08/2017 5:45 Not measured Full data
River Gauge Torrumbarry Headworks Murray 84.49 m 24/08/2017 5:45 Not measured Not measured 966.7 ML/d24/08/2017 5:45 Not measured Not measured Not measured Full data
Weirs Torrumbarry Weir Downstream Murray 3.5 m 24/08/2017 5:45 11323 ML/Day 24/08/2017 5:45 Not measured Not measured 10.5°C 24/08/2017 5:45 102.8 μS/cm 24/08/2017 5:45 Not measured Full data
Weirs Torrumbarry Weir Upstream Murray 86 m 23/08/2017 8:45 Not measured 36 GL 23/08/2017 8:45 Not measured 10.5°C 23/08/2017 8:45 95.0 μS/cm 23/08/2017 8:45 0.0 mm 23/08/2017 9:00 Full data
River Gauge Wakool Canal Wakool 0.24 m 24/08/2017 4:45 Not measured Not measured 0.0 ML/d23/08/2017 8:45 Not measured Not measured Not measured Full data
River Gauge Wakool Junction Murray 3.81 m 24/08/2017 5:45 10821 ML/Day 24/08/2017 5:45 Not measured Not measured 11.3°C 24/08/2017 5:45 141.7 μS/cm 24/08/2017 5:45 Not measured Full data
River Gauge Weir 32 Upstream Darling 1.45 m 24/08/2017 5:45 354 ML/Day 24/08/2017 5:45 Not measured Not measured 12.9°C 24/08/2017 5:45 681.4 μS/cm 24/08/2017 5:45 Not measured Full data
Weirs Wentworth Weir Murray 28.09 m 24/08/2017 5:45 Not measured Not measured 13338.3 ML/d23/08/2017 7:45 Not measured 173.0 μS/cm 23/08/2017 7:45 0.0 mm 22/08/2017 9:00 Full data
River Gauge Wilcania Darling 0.53 m 24/08/2017 5:45 281 ML/Day 24/08/2017 5:45 Not measured Not measured 13.0°C 24/08/2017 5:45 277.4 μS/cm 24/08/2017 5:45 Not measured Full data
River Gauge Yarrawonga Main Channel Murray 123.13 m 24/08/2017 5:45 Not measured Not measured 300.5 ML/d23/08/2017 8:45 Not measured Not measured Not measured Full data
Weirs Yarrawonga Weir Downstream Murray 3.53 m 24/08/2017 6:15 25478 ML/Day 24/08/2017 6:15 Not measured Not measured 10.2°C 24/08/2017 6:15 52.6 μS/cm 24/08/2017 6:15 Not measured Full data
Weirs Yarrawonga Weir Upstream Murray 124.73 m 24/08/2017 6:00 Not measured Not measured Not measured Not measured Not measured 0.2 mm 23/08/2017 9:00 Full data